Time;durP1;ratioP1;P1;durP2;ratioP2;P2;SDS_P1;SDS_P2;PMS_P1;PMS_P2;Temp;Humidity;BMP_temperature;BMP_pressure;BME280_temperature;BME280_humidity;BME280_pressure;Samples;Min_cycle;Max_cycle;Signal;HPM_P1;HPM_P2
2022/07/30 00:01:43;;;;;;;13.32;5.72;;;;;;;16.65;81.48;101723.06;5010717;28;20033;-78
2022/07/30 00:04:08;;;;;;;11.65;5.80;;;;;;;16.68;81.36;101725.47;5012801;28;20473;-78
2022/07/30 00:06:36;;;;;;;15.23;5.88;;;;;;;16.70;81.83;101715.56;5011244;28;20025;-78
2022/07/30 00:09:02;;;;;;;11.15;5.88;;;;;;;16.63;82.01;101717.03;5010667;28;20018;-78
2022/07/30 00:11:27;;;;;;;12.07;6.47;;;;;;;16.60;82.61;101714.63;5010468;28;20028;-77
2022/07/30 00:13:53;;;;;;;15.80;7.22;;;;;;;16.64;83.19;101710.75;5011375;28;20045;-78
2022/07/30 00:16:18;;;;;;;16.55;7.50;;;;;;;16.63;83.10;101713.53;5007250;28;20030;-78
2022/07/30 00:18:43;;;;;;;9.90;6.80;;;;;;;16.55;83.73;101706.22;4992596;28;20027;-78
2022/07/30 00:21:09;;;;;;;12.13;6.68;;;;;;;16.57;83.51;101709.59;4992544;28;20060;-78
2022/07/30 00:23:34;;;;;;;13.35;6.93;;;;;;;16.50;83.68;101706.63;4991483;28;20019;-82
2022/07/30 00:26:00;;;;;;;11.70;6.43;;;;;;;16.53;83.92;101703.69;5007381;28;20137;-78
2022/07/30 00:28:25;;;;;;;16.27;7.25;;;;;;;16.45;84.90;101705.34;5010042;28;20034;-78
2022/07/30 00:30:50;;;;;;;10.85;7.03;;;;;;;16.45;84.48;101713.28;5009961;28;20022;-78
2022/07/30 00:33:16;;;;;;;16.90;7.22;;;;;;;16.45;84.72;101715.94;5010666;28;20105;-78
2022/07/30 00:35:44;;;;;;;14.30;7.55;;;;;;;16.36;85.08;101712.25;5010305;28;20122;-78
2022/07/30 00:38:09;;;;;;;14.73;7.38;;;;;;;16.36;85.69;101716.72;5010300;28;20049;-78
2022/07/30 00:40:35;;;;;;;18.10;7.90;;;;;;;16.22;86.42;101716.06;5010854;28;20478;-77
2022/07/30 00:43:00;;;;;;;15.05;8.15;;;;;;;16.20;86.39;101725.97;5012449;28;20635;-78
2022/07/30 00:45:26;;;;;;;17.02;7.93;;;;;;;16.22;86.97;101726.69;5010974;28;20045;-78
2022/07/30 00:47:52;;;;;;;14.90;8.57;;;;;;;16.18;87.42;101730.56;5011103;28;20137;-78
2022/07/30 00:50:20;;;;;;;13.18;8.55;;;;;;;16.08;88.07;101724.34;5003379;28;20038;-77
2022/07/30 00:52:46;;;;;;;17.52;9.23;;;;;;;16.10;88.07;101724.22;5001733;28;20528;-78
2022/07/30 00:55:13;;;;;;;13.77;8.60;;;;;;;16.12;87.90;101716.97;4992618;28;20061;-78
2022/07/30 00:57:40;;;;;;;13.13;8.82;;;;;;;16.06;87.79;101714.84;4994935;28;20022;-78
2022/07/30 01:00:11;;;;;;;15.00;9.43;;;;;;;16.06;88.29;101718.31;5007132;28;20025;-78
2022/07/30 01:02:36;;;;;;;15.98;9.00;;;;;;;16.08;88.10;101716.38;5000832;28;20045;-81
2022/07/30 01:05:03;;;;;;;17.20;9.95;;;;;;;15.99;89.43;101714.47;4990450;28;20547;-78
2022/07/30 01:07:29;;;;;;;16.42;10.23;;;;;;;15.95;89.60;101715.69;5008013;28;20112;-78
2022/07/30 01:09:54;;;;;;;14.52;10.45;;;;;;;16.00;89.54;101700.22;5004756;28;20061;-78
2022/07/30 01:12:23;;;;;;;16.20;10.65;;;;;;;15.94;89.68;101706.06;4999052;28;20022;-78
2022/07/30 01:14:49;;;;;;;15.05;10.23;;;;;;;15.98;89.16;101710.13;4998413;28;20022;-78
2022/07/30 01:17:14;;;;;;;17.77;10.70;;;;;;;15.95;89.38;101707.72;4995602;28;20453;-78
2022/07/30 01:19:49;;;;;;;16.30;11.20;;;;;;;15.97;89.75;101708.44;4994235;28;20030;-79
2022/07/30 01:22:22;;;;;;;18.30;11.10;;;;;;;15.94;89.89;101711.38;5002996;28;20032;-79
2022/07/30 01:25:03;;;;;;;17.17;11.35;;;;;;;15.95;90.14;101707.72;4997904;28;20503;-78
2022/07/30 01:27:43;;;;;;;17.30;11.25;;;;;;;15.89;90.03;101711.75;4989104;28;20406;-79
2022/07/30 01:30:10;;;;;;;14.77;10.57;;;;;;;15.86;90.16;101708.50;4994440;28;20030;-79
2022/07/30 01:32:40;;;;;;;15.25;10.85;;;;;;;15.86;90.38;101709.34;4999576;28;20030;-79
2022/07/30 01:35:11;;;;;;;17.15;11.05;;;;;;;15.79;90.72;101710.81;5008244;28;20022;-83
2022/07/30 01:37:38;;;;;;;20.35;12.02;;;;;;;15.74;90.94;101706.88;5005672;28;20018;-82
2022/07/30 01:40:04;;;;;;;16.60;11.38;;;;;;;15.74;90.70;101706.88;4990975;28;20027;-79
2022/07/30 01:42:31;;;;;;;18.08;12.00;;;;;;;15.69;91.15;101715.22;4997997;28;20105;-79
2022/07/30 01:44:57;;;;;;;15.77;12.13;;;;;;;15.66;91.59;101712.81;5004695;28;20030;-82
2022/07/30 01:47:24;;;;;;;16.23;12.73;;;;;;;15.58;91.83;101713.41;4994446;28;20030;-79
2022/07/30 01:49:51;;;;;;;19.30;13.00;;;;;;;15.59;91.70;101712.44;4996202;28;20080;-82
2022/07/30 01:52:19;;;;;;;19.33;13.05;;;;;;;15.54;92.27;101714.59;5002378;28;20473;-82
2022/07/30 01:54:47;;;;;;;18.33;13.13;;;;;;;15.52;92.53;101713.88;5002626;28;20119;-79
2022/07/30 01:57:15;;;;;;;23.08;14.45;;;;;;;15.47;92.83;101716.06;4994074;28;20109;-79
2022/07/30 01:59:44;;;;;;;18.95;13.70;;;;;;;15.46;92.28;101711.72;4994602;28;20030;-78
2022/07/30 02:02:10;;;;;;;18.40;13.77;;;;;;;15.46;92.79;101717.03;5003852;28;20030;-79
2022/07/30 02:04:35;;;;;;;22.40;15.02;;;;;;;15.46;92.55;101706.41;5001353;28;20030;-79
2022/07/30 02:07:13;;;;;;;23.15;15.10;;;;;;;15.52;92.79;101716.53;4995312;28;20074;-78
2022/07/30 02:10:03;;;;;;;18.70;15.10;;;;;;;15.55;91.68;101715.44;4993655;28;20402;-77
2022/07/30 02:12:31;;;;;;;19.77;14.45;;;;;;;15.49;92.69;101716.78;4999659;28;20448;-78
2022/07/30 02:15:13;;;;;;;20.40;15.75;;;;;;;15.39;93.51;101720.31;5003512;28;20372;-82
2022/07/30 02:17:42;;;;;;;25.13;15.10;;;;;;;15.37;93.28;101723.06;4994289;28;20029;-78
2022/07/30 02:20:09;;;;;;;16.38;14.52;;;;;;;15.40;92.87;101714.88;5005083;28;20045;-78
2022/07/30 02:22:38;;;;;;;19.05;15.32;;;;;;;15.29;93.41;101714.91;4999091;28;20026;-78
2022/07/30 02:25:06;;;;;;;21.50;16.55;;;;;;;15.30;93.67;101713.94;5006269;28;20044;-79
2022/07/30 02:27:35;;;;;;;18.25;15.07;;;;;;;15.36;93.25;101724.88;4991384;28;20054;-79
2022/07/30 02:30:02;;;;;;;20.10;15.98;;;;;;;15.26;93.45;101725.75;4993955;28;20381;-79
2022/07/30 02:32:33;;;;;;;20.20;16.50;;;;;;;15.25;93.66;101716.09;4996029;28;20018;-79
2022/07/30 02:35:04;;;;;;;18.83;15.50;;;;;;;15.23;93.37;101715.38;4999902;28;20022;-79
2022/07/30 02:37:31;;;;;;;20.77;15.43;;;;;;;15.28;93.22;101718.50;5005180;28;20032;-78
2022/07/30 02:39:58;;;;;;;21.92;16.65;;;;;;;15.26;93.07;101720.44;4996772;28;20037;-83
2022/07/30 02:42:24;;;;;;;19.40;15.63;;;;;;;15.26;93.15;101723.09;5002957;28;20030;-78
2022/07/30 02:44:52;;;;;;;19.23;16.40;;;;;;;15.20;93.66;101719.09;4989432;28;20029;-78
2022/07/30 02:47:22;;;;;;;18.95;16.88;;;;;;;15.10;93.81;101720.81;5006337;28;20171;-78
2022/07/30 02:49:49;;;;;;;19.83;16.38;;;;;;;15.10;93.83;101719.97;4993271;28;20057;-78
2022/07/30 02:52:16;;;;;;;19.08;16.98;;;;;;;15.08;94.23;101717.44;5000550;28;20034;-78
2022/07/30 02:54:44;;;;;;;20.55;17.35;;;;;;;15.04;93.68;101721.28;5002056;28;20479;-80
2022/07/30 02:57:10;;;;;;;23.48;17.30;;;;;;;15.03;93.99;101719.59;4994359;28;20029;-78
2022/07/30 02:59:39;;;;;;;21.83;18.08;;;;;;;14.99;94.35;101721.66;5006856;28;20072;-78
2022/07/30 03:02:06;;;;;;;20.25;17.58;;;;;;;14.95;94.41;101722.84;4996389;28;20053;-78
2022/07/30 03:04:33;;;;;;;22.17;18.20;;;;;;;14.98;94.40;101724.44;4998174;28;20037;-78
2022/07/30 03:06:59;;;;;;;20.80;16.60;;;;;;;14.98;94.48;101727.91;5004518;28;20155;-78
2022/07/30 03:09:26;;;;;;;22.88;17.70;;;;;;;14.93;94.62;101723.94;4992532;28;20037;-79
2022/07/30 03:11:53;;;;;;;24.75;17.95;;;;;;;14.94;94.62;101739.72;5005823;28;20396;-78
2022/07/30 03:14:19;;;;;;;20.30;17.98;;;;;;;14.89;94.89;101725.16;4999989;28;20101;-79
2022/07/30 03:16:47;;;;;;;21.08;18.35;;;;;;;14.88;95.01;101734.06;5001079;28;20120;-78
2022/07/30 03:19:16;;;;;;;25.00;17.85;;;;;;;14.88;94.56;101740.22;4992720;28;20117;-78
2022/07/30 03:21:44;;;;;;;21.23;18.63;;;;;;;14.86;94.97;101723.59;4993505;28;20026;-79
2022/07/30 03:24:12;;;;;;;25.42;18.45;;;;;;;14.87;94.70;101725.28;5002024;28;20030;-79
2022/07/30 03:26:39;;;;;;;22.48;18.40;;;;;;;14.80;94.78;101726.69;4988950;28;20574;-79
2022/07/30 03:29:06;;;;;;;21.95;18.25;;;;;;;14.80;94.77;101729.34;5001816;28;20080;-78
2022/07/30 03:31:32;;;;;;;23.50;18.45;;;;;;;14.74;95.00;101720.06;4993189;28;20034;-82
2022/07/30 03:33:58;;;;;;;21.77;18.38;;;;;;;14.75;94.86;101726.19;5001162;28;20030;-78
2022/07/30 03:36:23;;;;;;;29.52;19.52;;;;;;;14.72;95.05;101721.16;4995515;28;20508;-77
2022/07/30 03:38:49;;;;;;;22.45;18.30;;;;;;;14.70;94.65;101723.06;4990899;28;20022;-78
2022/07/30 03:41:16;;;;;;;21.60;17.58;;;;;;;14.69;94.68;101726.69;4989537;28;20058;-78
2022/07/30 03:43:42;;;;;;;21.00;17.15;;;;;;;14.67;94.09;101733.91;5001986;28;20026;-78
2022/07/30 03:46:12;;;;;;;20.08;17.33;;;;;;;14.59;93.96;101734.50;5006738;28;20089;-78
2022/07/30 03:48:38;;;;;;;19.73;17.20;;;;;;;14.60;93.86;101735.34;5003012;28;20559;-78
2022/07/30 03:51:06;;;;;;;20.55;16.83;;;;;;;14.58;93.98;101742.56;4997362;28;20026;-78
2022/07/30 03:53:32;;;;;;;20.95;17.70;;;;;;;14.58;94.32;101739.91;4996799;28;20053;-77
2022/07/30 03:55:58;;;;;;;27.98;18.05;;;;;;;14.50;95.12;101742.31;4997976;28;20065;-78
2022/07/30 03:58:23;;;;;;;21.90;18.50;;;;;;;14.50;95.51;101747.59;5005903;28;20064;-78
2022/07/30 04:00:49;;;;;;;20.73;18.27;;;;;;;14.50;95.66;101742.31;4999294;28;20619;-77
2022/07/30 04:03:30;;;;;;;25.58;19.10;;;;;;;14.51;95.76;101750.13;5008688;28;20488;-82
2022/07/30 04:05:56;;;;;;;20.20;17.92;;;;;;;14.53;95.41;101747.38;5006831;28;20488;-77
2022/07/30 04:08:22;;;;;;;20.58;17.60;;;;;;;14.47;95.79;101753.13;4989703;28;20033;-78
2022/07/30 04:10:48;;;;;;;23.02;18.02;;;;;;;14.49;95.99;101753.88;4998888;28;20030;-78
2022/07/30 04:13:13;;;;;;;24.95;18.38;;;;;;;14.43;96.16;101756.97;5000797;28;20120;-77
2022/07/30 04:15:57;;;;;;;22.27;17.48;;;;;;;14.45;96.21;101768.31;5006708;28;20042;-77
2022/07/30 04:18:25;;;;;;;21.73;17.35;;;;;;;14.37;95.95;101767.00;4997898;28;20022;-78
2022/07/30 04:20:52;;;;;;;23.52;18.17;;;;;;;14.39;96.73;101767.75;4998465;28;20030;-78
2022/07/30 04:23:18;;;;;;;22.27;17.52;;;;;;;14.44;96.21;101766.63;4991213;28;20038;-77
2022/07/30 04:25:45;;;;;;;27.48;18.73;;;;;;;14.41;96.68;101775.59;5006924;28;20038;-83
2022/07/30 04:28:12;;;;;;;21.88;18.30;;;;;;;14.40;96.68;101769.44;4992364;28;20057;-77
2022/07/30 04:30:37;;;;;;;24.55;17.88;;;;;;;14.43;96.63;101772.88;4995576;28;20041;-76
2022/07/30 04:33:03;;;;;;;32.67;18.65;;;;;;;14.41;97.00;101771.16;4996496;28;20039;-82
2022/07/30 04:35:30;;;;;;;22.90;18.30;;;;;;;14.43;96.58;101781.66;5002165;28;20026;-76
2022/07/30 04:37:55;;;;;;;20.23;17.63;;;;;;;14.44;96.49;101774.56;5006318;28;20502;-77
2022/07/30 04:40:23;;;;;;;22.42;17.73;;;;;;;14.41;96.63;101787.03;5001704;28;20025;-77
2022/07/30 04:42:48;;;;;;;22.75;18.15;;;;;;;14.41;96.66;101779.09;5004106;28;20694;-77
2022/07/30 04:45:13;;;;;;;21.88;18.33;;;;;;;14.45;97.30;101781.53;5010588;28;20053;-77
2022/07/30 04:47:39;;;;;;;20.55;17.05;;;;;;;14.48;96.37;101791.91;4993733;28;20036;-77
2022/07/30 04:50:06;;;;;;;21.83;17.83;;;;;;;14.51;96.98;101794.31;4991957;28;20512;-77
2022/07/30 04:52:32;;;;;;;25.00;17.40;;;;;;;14.53;97.05;101790.59;4997598;28;20132;-77
2022/07/30 04:55:03;;;;;;;23.75;18.77;;;;;;;14.46;98.16;101796.47;4997529;28;20590;-78
2022/07/30 04:57:30;;;;;;;22.75;18.55;;;;;;;14.50;97.76;101796.13;4999168;28;20383;-78
2022/07/30 04:59:56;;;;;;;23.15;17.73;;;;;;;14.61;97.04;101803.25;5008099;28;20029;-78
2022/07/30 05:02:25;;;;;;;23.15;17.60;;;;;;;14.60;97.45;101801.56;5001222;28;20022;-78
2022/07/30 05:04:51;;;;;;;25.45;17.85;;;;;;;14.65;97.53;101804.69;5002048;28;20022;-78
2022/07/30 05:07:20;;;;;;;19.58;16.58;;;;;;;14.64;97.72;101800.38;5001093;28;20018;-78
2022/07/30 05:09:46;;;;;;;19.85;16.33;;;;;;;14.68;97.64;101793.88;5001400;28;20396;-78
2022/07/30 05:12:12;;;;;;;23.75;16.48;;;;;;;14.72;97.26;101792.66;5003707;28;20030;-78
2022/07/30 05:14:37;;;;;;;23.73;16.25;;;;;;;14.81;97.30;101794.66;5003215;28;20442;-79
2022/07/30 05:17:03;;;;;;;21.98;16.60;;;;;;;14.86;97.43;101796.94;5003650;28;20026;-78
2022/07/30 05:19:28;;;;;;;19.63;16.15;;;;;;;14.86;97.39;101799.59;4999032;28;20076;-76
2022/07/30 05:21:53;;;;;;;20.95;16.90;;;;;;;14.91;97.35;101794.78;5000693;28;20034;-77
2022/07/30 05:24:19;;;;;;;24.40;17.50;;;;;;;14.91;98.07;101790.31;5001649;28;20022;-77
2022/07/30 05:26:44;;;;;;;22.63;16.85;;;;;;;14.99;97.04;101793.22;4988330;28;20188;-77
2022/07/30 05:29:10;;;;;;;23.38;16.50;;;;;;;15.02;97.42;101798.28;5000497;28;20029;-77
2022/07/30 05:31:37;;;;;;;20.35;16.88;;;;;;;15.04;97.61;101796.34;5000244;28;20105;-78
2022/07/30 05:34:03;;;;;;;23.02;16.77;;;;;;;15.08;97.30;101801.41;5007860;28;20121;-78
2022/07/30 05:36:29;;;;;;;21.80;17.42;;;;;;;15.13;97.67;101796.59;5010731;28;20571;-78
2022/07/30 05:38:54;;;;;;;22.02;17.00;;;;;;;15.19;97.46;101804.91;5006170;28;20489;-77
2022/07/30 05:41:19;;;;;;;22.27;16.92;;;;;;;15.26;97.32;101805.28;5003418;28;20456;-77
2022/07/30 05:43:45;;;;;;;25.92;18.15;;;;;;;15.27;97.78;101814.94;4992133;28;20476;-77
2022/07/30 05:46:10;;;;;;;26.02;17.02;;;;;;;15.36;97.71;101808.91;4990442;28;20026;-77
2022/07/30 05:48:35;;;;;;;23.25;17.65;;;;;;;15.38;97.48;101814.09;5001227;28;20488;-76
2022/07/30 05:51:01;;;;;;;18.30;16.35;;;;;;;15.48;97.69;101813.22;4992141;28;20049;-77
2022/07/30 05:53:27;;;;;;;21.08;16.90;;;;;;;15.55;97.48;101808.28;5001388;28;20025;-77
2022/07/30 05:55:53;;;;;;;21.20;16.60;;;;;;;15.61;97.55;101811.34;5010902;28;20040;-77
2022/07/30 05:58:18;;;;;;;20.25;16.42;;;;;;;15.63;96.61;101809.41;5010457;28;20388;-77
2022/07/30 06:00:44;;;;;;;22.17;16.75;;;;;;;15.68;96.34;101810.84;5010793;28;20491;-77
2022/07/30 06:03:09;;;;;;;23.45;17.33;;;;;;;15.73;96.50;101813.97;5009265;28;20400;-77
2022/07/30 06:05:35;;;;;;;23.20;17.30;;;;;;;15.75;96.07;101817.34;4994048;28;20484;-77
2022/07/30 06:08:00;;;;;;;20.77;15.93;;;;;;;15.80;96.34;101816.00;4989918;28;20081;-77
2022/07/30 06:10:25;;;;;;;21.10;15.90;;;;;;;15.83;96.44;101818.41;4996588;28;20030;-78
2022/07/30 06:12:51;;;;;;;20.52;16.55;;;;;;;15.89;96.55;101827.69;4991043;28;20025;-78
2022/07/30 06:15:16;;;;;;;20.02;16.48;;;;;;;15.95;95.98;101825.38;4991873;28;20024;-78
2022/07/30 06:17:46;;;;;;;19.77;15.85;;;;;;;15.98;96.03;101826.94;4997711;28;20518;-77
2022/07/30 06:20:14;;;;;;;20.77;14.85;;;;;;;16.05;96.02;101828.16;4999090;28;20399;-76
2022/07/30 06:22:39;;;;;;;17.35;14.32;;;;;;;16.11;95.42;101819.69;4997557;28;20033;-77
2022/07/30 06:25:06;;;;;;;21.65;15.00;;;;;;;16.18;95.60;101831.47;5006057;28;20030;-77
2022/07/30 06:27:35;;;;;;;17.73;14.90;;;;;;;16.21;95.55;101831.22;4999524;28;20049;-77
2022/07/30 06:30:05;;;;;;;22.75;14.15;;;;;;;16.29;94.56;101839.41;5011656;28;20108;-77
2022/07/30 06:32:30;;;;;;;16.83;12.35;;;;;;;16.28;92.98;101829.75;5004015;28;20101;-78
2022/07/30 06:34:56;;;;;;;19.02;12.40;;;;;;;16.34;93.48;101831.06;4990192;28;20444;-77
2022/07/30 06:37:21;;;;;;;21.38;12.50;;;;;;;16.44;93.32;101826.69;4990188;28;20036;-78
2022/07/30 06:39:47;;;;;;;20.80;12.82;;;;;;;16.49;92.61;101837.78;4991006;28;20461;-78
2022/07/30 06:42:13;;;;;;;23.98;13.80;;;;;;;16.56;92.44;101841.59;4991899;28;22542;-79
2022/07/30 06:44:38;;;;;;;15.00;12.45;;;;;;;16.57;91.28;101842.44;5009692;28;20103;-79
2022/07/30 06:47:04;;;;;;;16.10;12.40;;;;;;;16.63;91.44;101841.91;5005840;28;20028;-79
2022/07/30 06:49:35;;;;;;;14.57;10.80;;;;;;;16.68;90.39;101847.72;5001263;28;20042;-79
2022/07/30 06:52:01;;;;;;;13.63;10.98;;;;;;;16.73;90.58;101842.88;4994796;28;20400;-79
2022/07/30 06:54:27;;;;;;;10.98;8.48;;;;;;;16.79;89.39;101836.19;5004262;28;20022;-78
2022/07/30 06:56:52;;;;;;;16.50;9.88;;;;;;;16.91;89.76;101838.66;5001960;28;20033;-79
2022/07/30 06:59:18;;;;;;;15.70;9.50;;;;;;;17.03;89.27;101844.75;4995883;28;20695;-80
2022/07/30 07:01:43;;;;;;;17.58;10.65;;;;;;;17.16;88.78;101833.91;4989967;28;20120;-80
2022/07/30 07:04:09;;;;;;;11.25;8.88;;;;;;;17.23;87.64;101837.75;5005997;28;20099;-80
2022/07/30 07:06:34;;;;;;;13.57;7.35;;;;;;;17.27;85.99;101841.81;4998795;28;20033;-80
2022/07/30 07:09:00;;;;;;;11.52;7.07;;;;;;;17.46;86.70;101841.03;4994550;28;20033;-80
2022/07/30 07:11:25;;;;;;;12.50;6.78;;;;;;;17.63;84.68;101842.25;4995783;28;20082;-79
2022/07/30 07:13:51;;;;;;;12.85;6.22;;;;;;;18.01;83.67;101842.41;5006912;28;20103;-80
2022/07/30 07:16:20;;;;;;;9.93;5.82;;;;;;;18.10;82.58;101846.88;4993659;28;20057;-80
2022/07/30 07:18:46;;;;;;;8.77;5.70;;;;;;;18.23;82.47;101846.63;5001475;28;20018;-79
2022/07/30 07:21:11;;;;;;;10.30;5.45;;;;;;;18.59;80.17;101845.09;5011683;28;20030;-79
2022/07/30 07:23:37;;;;;;;7.05;4.40;;;;;;;18.75;76.37;101837.38;5004852;28;20072;-79
2022/07/30 07:26:02;;;;;;;10.23;4.90;;;;;;;19.05;76.22;101833.69;4998505;28;20038;-79
2022/07/30 07:28:27;;;;;;;12.38;4.68;;;;;;;19.35;74.76;101835.28;4999170;28;20395;-79
2022/07/30 07:30:53;;;;;;;9.88;3.85;;;;;;;19.66;74.15;101832.38;4999719;28;20042;-79
2022/07/30 07:33:18;;;;;;;9.13;3.42;;;;;;;19.78;70.96;101839.19;5010214;28;20037;-77
2022/07/30 07:35:43;;;;;;;7.57;3.45;;;;;;;19.97;69.89;101840.88;5004559;28;20022;-77
2022/07/30 07:38:09;;;;;;;7.57;3.30;;;;;;;20.29;68.44;101840.38;5007520;28;20018;-77
2022/07/30 07:40:34;;;;;;;10.10;3.95;;;;;;;20.49;68.88;101847.31;5007778;28;20037;-77
2022/07/30 07:42:59;;;;;;;9.18;3.30;;;;;;;20.35;66.04;101834.41;5008643;28;20147;-78
2022/07/30 07:45:25;;;;;;;6.15;3.30;;;;;;;20.29;66.18;101835.03;5000459;28;20484;-78
2022/07/30 07:47:50;;;;;;;6.05;3.05;;;;;;;20.18;67.33;101844.13;4998112;28;20069;-77
2022/07/30 07:50:17;;;;;;;6.35;2.60;;;;;;;20.46;65.88;101844.09;5005509;28;20021;-77
2022/07/30 07:52:43;;;;;;;9.55;3.10;;;;;;;20.62;65.04;101837.03;5003231;28;20062;-77
2022/07/30 07:55:09;;;;;;;6.53;2.75;;;;;;;20.77;65.75;101840.00;5002125;28;20022;-78
2022/07/30 07:57:42;;;;;;;7.57;2.83;;;;;;;20.93;62.49;101839.28;5004072;28;20473;-77
2022/07/30 08:00:09;;;;;;;9.90;3.03;;;;;;;20.95;62.59;101839.97;5008811;28;20475;-77
2022/07/30 08:02:35;;;;;;;8.15;2.80;;;;;;;21.04;62.90;101840.88;4993104;28;20049;-77
2022/07/30 08:05:01;;;;;;;9.32;3.00;;;;;;;21.41;61.76;101832.56;4999180;28;20479;-77
2022/07/30 08:07:27;;;;;;;7.97;2.80;;;;;;;21.36;61.40;101833.06;5000758;28;20085;-77
2022/07/30 08:09:53;;;;;;;9.35;3.22;;;;;;;21.47;60.98;101837.28;5006140;28;20034;-78
2022/07/30 08:12:18;;;;;;;6.85;3.10;;;;;;;21.52;61.19;101834.97;4994331;28;20030;-78
2022/07/30 08:14:43;;;;;;;8.93;2.38;;;;;;;21.69;60.13;101828.69;5007961;28;20022;-77
2022/07/30 08:17:09;;;;;;;5.13;2.53;;;;;;;21.86;58.78;101833.09;5001718;28;20130;-77
2022/07/30 08:19:34;;;;;;;16.70;3.40;;;;;;;21.79;58.38;101831.22;5000457;28;20487;-78
2022/07/30 08:21:59;;;;;;;6.25;3.00;;;;;;;21.82;59.38;101826.38;5001317;28;20037;-78
2022/07/30 08:24:25;;;;;;;8.10;2.15;;;;;;;22.12;58.66;101832.19;5004668;28;20030;-78
2022/07/30 08:26:50;;;;;;;5.38;2.60;;;;;;;;;;4998486;28;20129;-77
2022/07/30 08:29:16;;;;;;;6.53;2.50;;;;;;;22.59;57.19;101827.03;5003978;28;20096;-77
2022/07/30 08:31:41;;;;;;;8.13;2.40;;;;;;;23.00;55.47;101833.22;5006668;28;20297;-77
2022/07/30 08:34:07;;;;;;;4.30;2.53;;;;;;;22.81;54.39;101828.19;5009005;28;20041;-83
2022/07/30 08:36:32;;;;;;;7.43;2.60;;;;;;;22.81;55.47;101828.19;5001691;28;20092;-77
2022/07/30 08:38:58;;;;;;;10.88;3.10;;;;;;;22.93;55.49;101826.88;5011946;28;20030;-77
2022/07/30 08:41:24;;;;;;;4.55;2.05;;;;;;;23.27;52.90;101828.47;4998733;28;20026;-78
2022/07/30 08:43:52;;;;;;;4.38;1.90;;;;;;;23.14;52.38;101832.50;5000942;28;20109;-77
2022/07/30 08:46:20;;;;;;;7.10;2.40;;;;;;;23.35;52.36;101831.13;4998897;28;20092;-77
2022/07/30 08:48:46;;;;;;;6.28;2.50;;;;;;;23.34;53.05;101818.72;4996707;28;20030;-77
2022/07/30 08:51:13;;;;;;;6.63;2.50;;;;;;;23.19;52.64;101828.47;4998066;28;20077;-77
2022/07/30 08:53:40;;;;;;;5.40;2.00;;;;;;;23.27;52.28;101821.25;4998180;28;20034;-76
2022/07/30 08:56:06;;;;;;;8.10;2.60;;;;;;;23.58;50.50;101826.69;5004714;28;20372;-76
2022/07/30 08:58:34;;;;;;;10.65;2.28;;;;;;;23.75;52.06;101822.94;4993997;28;20032;-77
2022/07/30 09:01:00;;;;;;;7.28;2.53;;;;;;;23.86;50.95;101818.16;5004377;28;20109;-77
2022/07/30 09:03:25;;;;;;;5.28;2.92;;;;;;;23.68;50.37;101815.75;4992299;28;21595;-77
2022/07/30 09:05:51;;;;;;;6.63;2.40;;;;;;;23.85;50.88;101813.78;4998357;28;20117;-77
2022/07/30 09:08:16;;;;;;;4.95;2.03;;;;;;;24.12;50.54;101818.69;5007920;28;20026;-76
2022/07/30 09:10:43;;;;;;;5.47;2.55;;;;;;;24.11;49.71;101813.47;4996158;28;20574;-76
2022/07/30 09:13:27;;;;;;;8.38;2.83;;;;;;;24.26;51.33;101831.34;5002945;28;20423;-76
2022/07/30 09:15:54;;;;;;;5.70;2.20;;;;;;;24.30;49.21;101835.38;5005330;28;20480;-76
2022/07/30 09:18:27;;;;;;;5.68;2.40;;;;;;;24.44;49.93;101841.00;5004573;28;20116;-76
2022/07/30 09:20:52;;;;;;;5.05;2.30;;;;;;;24.33;47.65;101837.69;4996923;28;20052;-76
2022/07/30 09:23:17;;;;;;;6.00;2.17;;;;;;;24.71;48.00;101840.44;5007675;28;20504;-77
2022/07/30 09:25:45;;;;;;;7.35;2.33;;;;;;;24.72;48.42;101847.47;4996820;28;20120;-76
2022/07/30 09:28:11;;;;;;;6.95;2.20;;;;;;;24.64;46.48;101850.25;5000967;28;20038;-77
2022/07/30 09:30:46;;;;;;;8.38;2.10;;;;;;;24.65;48.28;101851.94;5001885;28;20037;-77
2022/07/30 09:33:11;;;;;;;4.22;1.92;;;;;;;24.52;47.17;101849.00;4999015;28;20026;-76
2022/07/30 09:35:38;;;;;;;6.07;2.25;;;;;;;24.59;47.49;101850.81;4997729;28;20041;-76
2022/07/30 09:38:05;;;;;;;2.85;1.60;;;;;;;24.83;46.99;101855.16;4999521;28;20097;-77
2022/07/30 09:40:30;;;;;;;10.93;2.67;;;;;;;24.77;46.73;101847.78;4993719;28;20048;-76
2022/07/30 09:43:04;;;;;;;4.93;2.05;;;;;;;24.85;46.77;101846.88;5007929;28;20377;-76
2022/07/30 09:45:30;;;;;;;6.35;2.25;;;;;;;24.80;47.16;101839.31;5008107;28;20061;-76
2022/07/30 09:47:55;;;;;;;4.22;1.95;;;;;;;24.97;45.16;101837.34;4995671;28;20054;-76
2022/07/30 09:50:23;;;;;;;4.63;1.70;;;;;;;25.19;45.18;101832.91;4994884;28;20080;-77
2022/07/30 09:52:49;;;;;;;3.72;1.90;;;;;;;25.20;45.64;101832.72;5002315;28;20078;-76
2022/07/30 09:55:29;;;;;;;4.43;1.75;;;;;;;25.21;46.07;101831.69;4999949;28;20030;-76
2022/07/30 09:57:59;;;;;;;3.92;1.55;;;;;;;24.98;45.46;101831.78;5003806;28;20387;-76
2022/07/30 10:00:27;;;;;;;5.47;1.67;;;;;;;25.25;44.21;101822.25;4993231;28;20491;-76
2022/07/30 10:02:53;;;;;;;3.38;1.60;;;;;;;25.29;43.76;101817.31;5003093;28;20034;-76
2022/07/30 10:05:19;;;;;;;2.90;1.58;;;;;;;25.54;45.07;101813.28;5000387;28;20030;-77
2022/07/30 10:07:56;;;;;;;4.03;1.60;;;;;;;25.86;44.11;101817.44;5002311;28;20022;-76
2022/07/30 10:10:25;;;;;;;4.22;1.73;;;;;;;25.76;42.21;101814.22;4991351;28;20581;-76
2022/07/30 10:12:57;;;;;;;5.35;1.45;;;;;;;25.83;43.40;101817.81;4995979;28;20026;-76
2022/07/30 10:15:26;;;;;;;6.00;2.40;;;;;;;25.79;43.13;101821.94;4996346;28;20033;-77
2022/07/30 10:17:52;;;;;;;5.65;1.60;;;;;;;26.02;42.67;101808.31;4999690;28;20656;-77
2022/07/30 10:20:21;;;;;;;5.20;1.67;;;;;;;25.99;42.69;101808.66;4993134;28;20496;-77
2022/07/30 10:22:48;;;;;;;6.45;1.67;;;;;;;25.97;42.97;101810.72;5003346;28;20040;-77
2022/07/30 10:25:17;;;;;;;5.90;1.50;;;;;;;26.18;41.45;101816.13;4999742;28;20018;-77
2022/07/30 10:27:44;;;;;;;4.43;1.50;;;;;;;26.30;42.16;101812.91;4999814;28;20072;-76
2022/07/30 10:30:10;;;;;;;4.10;1.58;;;;;;;26.23;41.31;101810.16;5002913;28;20037;-77
2022/07/30 10:32:36;;;;;;;4.18;1.67;;;;;;;26.23;40.17;101813.69;5003581;28;20022;-76
2022/07/30 10:35:03;;;;;;;3.72;1.52;;;;;;;26.49;41.52;101809.59;5001824;28;20037;-77
2022/07/30 10:37:31;;;;;;;5.63;1.63;;;;;;;26.57;40.99;101808.63;4989561;28;20276;-76
2022/07/30 10:40:05;;;;;;;6.50;1.67;;;;;;;26.65;40.55;101814.72;5005405;28;20021;-76
2022/07/30 10:42:49;;;;;;;3.92;1.50;;;;;;;26.71;40.04;101807.69;4992306;28;20388;-76
2022/07/30 10:45:27;;;;;;;4.93;1.40;;;;;;;26.90;40.95;101811.56;5003881;28;20044;-76
2022/07/30 10:47:55;;;;;;;2.75;1.38;;;;;;;27.00;40.24;101817.50;5004630;28;20395;-76
2022/07/30 10:50:25;;;;;;;5.03;1.58;;;;;;;27.08;39.72;101820.03;5003919;28;20539;-76
2022/07/30 10:52:55;;;;;;;5.28;1.73;;;;;;;26.66;39.65;101810.97;4992435;28;20053;-77
2022/07/30 10:55:33;;;;;;;2.95;1.65;;;;;;;26.76;40.54;101816.88;4989806;28;20738;-76
2022/07/30 10:58:08;;;;;;;4.25;1.50;;;;;;;26.90;41.92;101814.28;5009840;28;20026;-76
2022/07/30 11:00:55;;;;;;;8.50;2.20;;;;;;;26.75;40.68;101809.78;5017516;28;20060;-76
2022/07/30 11:03:22;;;;;;;7.45;1.67;;;;;;;27.08;40.91;101803.81;4997807;28;20045;-76
2022/07/30 11:05:49;;;;;;;4.80;1.77;;;;;;;26.80;39.87;101804.63;5009514;28;20361;-76
2022/07/30 11:08:28;;;;;;;5.60;1.85;;;;;;;26.75;42.16;101807.09;4995829;28;20026;-76
2022/07/30 11:10:54;;;;;;;7.60;1.80;;;;;;;26.71;39.39;101804.97;5018310;28;20096;-77
2022/07/30 11:13:58;;;;;;;6.50;1.60;;;;;;;27.16;40.67;101803.66;4997821;28;20014;-76
2022/07/30 11:16:44;;;;;;;5.85;1.90;;;;;;;27.11;41.37;101808.81;5009025;28;20030;-77
2022/07/30 11:19:23;;;;;;;7.15;1.50;;;;;;;27.15;40.99;101800.13;4993368;28;20042;-77